Portada
METAR-TAF:

METAR-TAF

Aeroports :

Aitkin Municipal Airport (Steve Kurtz Field)

Aitkin, Minnesota, Estats Units d'Amèrica

latitud: 46-33N, longitud: 093-41W, altitud: 367 m

Observació

L'informe es va fer fa 21 minuts, a les 01:15 UTC
Vent calma
Temperatura 20°C
Humitat 68%
Pressió 1015 hPa
Visibilitat: 16.1 km
Núvols disperses a una alçada de 10000 ft

METAR: KAIT 200115Z AUTO 00000KT 10SM SCT100 20/14 A2998 RMK AO2

Hora: 20:36 (01:36 UTC)


TAF: manca

Observacions i pronòstics meteorològics de més de 4000 aeroports (METAR i TAF).

Les estacions disponibles són els punts grocs i vermells al mapa.

Posi el ratolí al punt desitjat per veure el nom de l'estació.

Feu clic per veure les observacions i els pronòstics meteorològics.

Per canviar el mapa: feu clic els botons verds amb una creu de color negre per apropar; al botó verd amb un guió per allunyar la imatge; o en les fletxes verdes per a mapes adjacents.


METAR-TAF: